createdAt,value
2018-06-09T00:01:31.118Z,74.10
2018-06-09T00:03:59.378Z,74.70
2018-06-09T00:06:27.705Z,74.10
2018-06-09T00:08:55.966Z,75.10
2018-06-09T00:11:24.228Z,74.80
2018-06-09T00:13:53.304Z,74.80
2018-06-09T00:16:21.523Z,75.30
2018-06-09T00:18:49.777Z,74.80
2018-06-09T00:21:18.015Z,75.30
2018-06-09T00:23:46.345Z,75.10
2018-06-09T00:26:14.729Z,75.50
2018-06-09T00:28:43.702Z,75.60
2018-06-09T00:31:12.118Z,75.10
2018-06-09T00:33:40.425Z,75.70
2018-06-09T00:36:09.293Z,75.50
2018-06-09T00:38:37.542Z,76.30
2018-06-09T00:41:05.767Z,76.10
2018-06-09T00:43:33.995Z,76.20
2018-06-09T00:46:02.278Z,76.40
2018-06-09T00:48:30.528Z,76.90
2018-06-09T00:50:58.840Z,76.70
2018-06-09T00:53:27.046Z,76.50
2018-06-09T00:56:06.663Z,76.30
2018-06-09T00:58:34.908Z,76.50
2018-06-09T01:01:03.123Z,76.40
2018-06-09T01:03:31.401Z,76.40
2018-06-09T01:05:59.603Z,75.50
2018-06-09T01:08:27.809Z,75.30
2018-06-09T01:10:56.143Z,75.60
2018-06-09T01:13:24.500Z,76.30
2018-06-09T01:15:52.723Z,76.00
2018-06-09T01:18:20.981Z,76.60
2018-06-09T01:20:49.197Z,76.70
2018-06-09T01:23:17.435Z,76.00
2018-06-09T01:25:45.621Z,76.40
2018-06-09T01:28:13.834Z,76.00
2018-06-09T01:30:42.202Z,75.70
2018-06-09T01:33:10.467Z,76.00
2018-06-09T01:35:38.658Z,75.90
2018-06-09T01:38:06.909Z,76.00
2018-06-09T01:40:35.182Z,76.40
2018-06-09T01:43:03.384Z,77.00
2018-06-09T01:45:31.557Z,76.50
2018-06-09T01:48:00.132Z,76.50
2018-06-09T01:50:28.531Z,77.10
2018-06-09T01:55:24.994Z,78.10
2018-06-09T01:57:53.219Z,79.10
2018-06-09T02:00:21.494Z,78.60
2018-06-09T02:02:49.757Z,79.20
2018-06-09T02:05:17.998Z,78.80
2018-06-09T02:07:46.241Z,78.60
2018-06-09T02:10:14.539Z,78.80
2018-06-09T02:12:42.794Z,79.40
2018-06-09T02:15:11.079Z,79.30
2018-06-09T02:17:39.360Z,79.00
2018-06-09T02:20:14.203Z,79.20
2018-06-09T02:22:42.437Z,79.30
2018-06-09T02:25:10.705Z,79.70
2018-06-09T02:27:38.930Z,79.60
2018-06-09T02:30:07.246Z,79.40
2018-06-09T02:32:35.578Z,79.30
2018-06-09T02:35:03.825Z,79.20
2018-06-09T02:37:32.094Z,79.40
2018-06-09T02:40:00.363Z,80.00
2018-06-09T02:42:28.630Z,80.30
2018-06-09T02:44:56.858Z,80.40
2018-06-09T02:47:25.083Z,81.00
2018-06-09T02:49:53.325Z,81.30
2018-06-09T02:52:21.568Z,80.90
2018-06-09T02:54:49.842Z,80.50
2018-06-09T02:57:18.774Z,80.10
2018-06-09T02:59:47.029Z,80.40
2018-06-09T03:02:15.297Z,80.10
2018-06-09T03:04:43.524Z,80.10
2018-06-09T03:07:11.763Z,80.00
2018-06-09T03:09:40.010Z,80.00
2018-06-09T03:12:08.269Z,79.80
2018-06-09T03:14:36.469Z,80.40
2018-06-09T03:17:04.718Z,80.20
2018-06-09T03:19:33.004Z,81.10
2018-06-09T03:22:01.445Z,80.50
2018-06-09T03:24:29.701Z,81.30
2018-06-09T03:26:57.937Z,81.40
2018-06-09T03:29:26.170Z,80.90
2018-06-09T03:31:54.381Z,80.30
2018-06-09T03:34:22.601Z,81.20
2018-06-09T03:36:50.830Z,81.40
2018-06-09T03:39:19.054Z,81.40
2018-06-09T03:41:47.317Z,81.30
2018-06-09T03:44:15.521Z,81.20
2018-06-09T03:46:43.769Z,80.60
2018-06-09T03:49:11.947Z,80.80
2018-06-09T03:54:08.069Z,80.60
2018-06-09T03:56:36.285Z,80.60
2018-06-09T03:59:04.537Z,80.40
2018-06-09T04:01:32.727Z,80.40
2018-06-09T04:04:00.941Z,80.60
2018-06-09T04:06:29.124Z,80.60
2018-06-09T04:08:57.320Z,80.00
2018-06-09T04:11:25.517Z,80.60
2018-06-09T04:13:53.698Z,81.10
2018-06-09T04:16:21.886Z,80.40
2018-06-09T04:18:50.061Z,79.60
2018-06-09T04:21:18.238Z,79.20
2018-06-09T04:23:47.309Z,79.10
2018-06-09T04:26:15.462Z,78.40
2018-06-09T04:28:43.647Z,77.80
2018-06-09T04:31:11.840Z,78.50
2018-06-09T04:33:40.171Z,78.20
2018-06-09T04:36:09.394Z,78.00
2018-06-09T04:38:37.559Z,77.60
2018-06-09T04:41:05.759Z,77.70
2018-06-09T04:43:33.968Z,77.50
2018-06-09T04:46:02.200Z,76.70
2018-06-09T04:48:30.450Z,76.10
2018-06-09T04:53:26.690Z,75.30
2018-06-09T04:55:54.905Z,75.00
2018-06-09T04:58:23.151Z,75.10
2018-06-09T05:03:26.032Z,74.70
2018-06-09T05:05:54.361Z,73.90
2018-06-09T05:08:22.608Z,73.10
2018-06-09T05:10:50.811Z,72.80
2018-06-09T05:13:19.055Z,71.80
2018-06-09T05:15:47.253Z,70.70
2018-06-09T05:20:43.486Z,68.60
2018-06-09T05:23:11.685Z,66.80
2018-06-09T05:25:39.909Z,65.70
2018-06-09T05:28:08.295Z,64.60
2018-06-09T05:30:36.411Z,63.30
2018-06-09T05:33:04.719Z,61.00
2018-06-09T05:35:33.014Z,60.40
2018-06-09T05:38:01.240Z,59.50
2018-06-09T05:40:29.481Z,58.40
2018-06-09T05:42:57.737Z,58.00
2018-06-09T05:45:25.979Z,57.20
2018-06-09T05:47:54.187Z,56.30
2018-06-09T05:50:22.379Z,55.00
2018-06-09T05:52:50.545Z,54.10
2018-06-09T05:55:18.737Z,53.70
2018-06-09T05:57:46.908Z,54.50
2018-06-09T06:00:15.064Z,53.80
2018-06-09T06:02:43.252Z,52.30
2018-06-09T06:05:11.414Z,51.70
2018-06-09T06:07:39.581Z,51.00
2018-06-09T06:10:07.741Z,51.30
2018-06-09T06:12:35.933Z,51.90
2018-06-09T06:15:04.182Z,51.70
2018-06-09T06:17:32.377Z,51.40
2018-06-09T06:20:00.539Z,52.30
2018-06-09T06:22:28.757Z,52.80
2018-06-09T06:24:56.923Z,53.20
2018-06-09T06:27:25.086Z,52.70
2018-06-09T06:29:53.269Z,51.90
2018-06-09T06:34:49.428Z,51.50
2018-06-09T06:37:17.625Z,51.50
2018-06-09T06:39:45.809Z,50.30
2018-06-09T06:42:14.112Z,51.50
2018-06-09T06:44:42.278Z,51.80
2018-06-09T06:47:10.472Z,51.80
2018-06-09T06:49:38.714Z,51.80
2018-06-09T06:52:06.955Z,52.40
2018-06-09T06:54:35.177Z,52.80
2018-06-09T06:57:03.422Z,52.00
2018-06-09T06:59:31.680Z,52.50
2018-06-09T07:02:00.023Z,52.90
2018-06-09T07:04:28.229Z,52.90
2018-06-09T07:06:56.466Z,52.70
2018-06-09T07:09:24.698Z,52.40
2018-06-09T07:11:52.971Z,53.50
2018-06-09T07:14:21.253Z,53.60
2018-06-09T07:16:49.480Z,54.10
2018-06-09T07:19:17.743Z,54.80
2018-06-09T07:21:46.077Z,54.80
2018-06-09T07:24:14.277Z,55.70
2018-06-09T07:26:42.549Z,55.40
2018-06-09T07:29:10.863Z,56.10
2018-06-09T07:31:39.111Z,55.80
2018-06-09T07:34:07.360Z,56.40
2018-06-09T07:36:35.523Z,56.70
2018-06-09T07:39:05.309Z,56.70
2018-06-09T07:41:33.538Z,56.80
2018-06-09T07:44:01.706Z,56.90
2018-06-09T07:46:29.908Z,56.60
2018-06-09T07:48:58.138Z,57.90
2018-06-09T07:51:26.317Z,57.90
2018-06-09T07:53:54.499Z,58.40
2018-06-09T07:56:22.690Z,58.50
2018-06-09T07:58:50.869Z,58.40
2018-06-09T08:01:19.049Z,58.40
2018-06-09T08:03:47.241Z,57.70
2018-06-09T08:06:15.418Z,57.70
2018-06-09T08:08:43.603Z,57.70
2018-06-09T08:11:11.781Z,57.10
2018-06-09T08:13:39.970Z,56.90
2018-06-09T08:16:08.163Z,57.70
2018-06-09T08:18:36.353Z,57.40
2018-06-09T08:21:04.545Z,57.40
2018-06-09T08:23:32.742Z,57.20
2018-06-09T08:26:00.906Z,56.90
2018-06-09T08:28:29.137Z,55.90
2018-06-09T08:30:57.309Z,55.60
2018-06-09T08:33:25.494Z,55.20
2018-06-09T08:35:53.719Z,55.00
2018-06-09T08:38:21.902Z,54.60
2018-06-09T08:40:50.085Z,54.20
2018-06-09T08:43:18.286Z,54.80
2018-06-09T08:45:46.505Z,54.20
2018-06-09T08:48:14.710Z,53.30
2018-06-09T08:50:42.961Z,53.80
2018-06-09T08:53:11.210Z,53.90
2018-06-09T08:55:39.459Z,52.20
2018-06-09T08:58:07.690Z,52.10
2018-06-09T09:00:35.966Z,52.00
2018-06-09T09:03:04.313Z,52.00
2018-06-09T09:05:32.597Z,51.50
2018-06-09T09:08:00.905Z,51.60
2018-06-09T09:10:29.179Z,51.20
2018-06-09T09:12:57.563Z,49.90
2018-06-09T09:15:25.835Z,48.80
2018-06-09T09:17:54.096Z,49.40
2018-06-09T09:20:22.389Z,48.20
2018-06-09T09:22:50.662Z,47.80
2018-06-09T09:25:18.938Z,47.10
2018-06-09T09:27:47.253Z,46.00
2018-06-09T09:30:15.509Z,45.60
2018-06-09T09:32:43.775Z,46.20
2018-06-09T09:35:12.049Z,46.30
2018-06-09T09:37:40.276Z,46.00
2018-06-09T09:40:08.505Z,45.90
2018-06-09T09:42:36.800Z,45.90
2018-06-09T09:45:05.034Z,44.50
2018-06-09T09:50:01.269Z,43.60
2018-06-09T09:52:29.597Z,42.90
2018-06-09T09:54:57.870Z,42.70
2018-06-09T09:57:26.077Z,42.10
2018-06-09T09:59:54.341Z,40.40
2018-06-09T10:02:22.625Z,39.70
2018-06-09T10:04:50.872Z,39.50
2018-06-09T10:07:19.121Z,38.80
2018-06-09T10:09:47.386Z,37.40
2018-06-09T10:12:15.661Z,38.20
2018-06-09T10:14:43.922Z,38.90
2018-06-09T10:17:12.174Z,39.20
2018-06-09T10:19:40.430Z,39.50
2018-06-09T10:22:08.686Z,38.40
2018-06-09T10:24:36.974Z,37.70
2018-06-09T10:27:05.274Z,39.20
2018-06-09T10:29:33.489Z,40.30
2018-06-09T10:32:01.705Z,39.20
2018-06-09T10:34:29.946Z,38.80
2018-06-09T10:36:58.228Z,38.00
2018-06-09T10:39:26.489Z,37.20
2018-06-09T10:41:54.807Z,36.90
2018-06-09T10:44:23.029Z,37.00
2018-06-09T10:46:51.245Z,36.80
2018-06-09T10:49:19.507Z,36.70
2018-06-09T10:51:47.724Z,36.60
2018-06-09T10:54:15.958Z,37.80
2018-06-09T10:56:44.221Z,39.20
2018-06-09T10:59:12.501Z,39.80
2018-06-09T11:01:40.781Z,40.60
2018-06-09T11:04:09.058Z,41.30
2018-06-09T11:06:37.321Z,42.20
2018-06-09T11:09:06.962Z,42.80
2018-06-09T11:11:35.181Z,43.10
2018-06-09T11:14:03.417Z,43.20
2018-06-09T11:16:31.666Z,43.90
2018-06-09T11:18:59.950Z,44.90
2018-06-09T11:21:28.222Z,44.70
2018-06-09T11:23:56.512Z,44.30
2018-06-09T11:26:24.768Z,44.50
2018-06-09T11:28:53.005Z,45.40
2018-06-09T11:31:21.352Z,44.30
2018-06-09T11:33:49.590Z,43.40
2018-06-09T11:36:17.936Z,43.60
2018-06-09T11:38:46.205Z,43.70
2018-06-09T11:41:14.434Z,44.20
2018-06-09T11:43:42.698Z,44.00
2018-06-09T11:46:10.945Z,43.80
2018-06-09T11:48:39.210Z,43.90
2018-06-09T11:51:07.437Z,44.00
2018-06-09T11:53:35.692Z,43.10
2018-06-09T11:56:03.979Z,44.10
2018-06-09T11:58:32.248Z,43.80
2018-06-09T12:01:00.495Z,42.60
2018-06-09T12:03:28.733Z,42.00
2018-06-09T12:05:56.956Z,43.30
2018-06-09T12:08:25.164Z,44.20
2018-06-09T12:10:53.485Z,44.40
2018-06-09T12:13:21.754Z,43.30
2018-06-09T12:15:49.965Z,43.50
2018-06-09T12:18:18.213Z,43.20
2018-06-09T12:20:46.490Z,42.50
2018-06-09T12:23:14.741Z,43.30
2018-06-09T12:25:43.010Z,43.70
2018-06-09T12:28:11.286Z,43.50
2018-06-09T12:30:39.545Z,44.20
2018-06-09T12:33:07.824Z,44.10
2018-06-09T12:35:36.034Z,42.40
2018-06-09T12:38:04.378Z,42.60
2018-06-09T12:43:00.578Z,41.80
2018-06-09T12:45:28.860Z,42.20
2018-06-09T12:47:57.920Z,42.40
2018-06-09T12:50:26.142Z,41.80
2018-06-09T12:52:54.398Z,41.50
2018-06-09T12:55:22.577Z,41.20
2018-06-09T12:57:50.759Z,40.70
2018-06-09T13:00:19.085Z,41.40
2018-06-09T13:02:47.386Z,41.80
2018-06-09T13:05:15.583Z,41.20
2018-06-09T13:07:43.818Z,40.20
2018-06-09T13:10:11.991Z,39.80
2018-06-09T13:12:40.166Z,39.50
2018-06-09T13:15:08.344Z,38.40
2018-06-09T13:17:36.521Z,39.70
2018-06-09T13:20:04.789Z,40.70
2018-06-09T13:22:32.980Z,40.30
2018-06-09T13:25:01.189Z,40.50
2018-06-09T13:27:29.358Z,40.30
2018-06-09T13:29:57.533Z,40.40
2018-06-09T13:32:25.764Z,39.90
2018-06-09T13:34:53.981Z,40.30
2018-06-09T13:37:22.158Z,39.50
2018-06-09T13:39:50.333Z,39.60
2018-06-09T13:42:18.512Z,39.40
2018-06-09T13:44:46.690Z,39.50
2018-06-09T13:47:14.928Z,39.90
2018-06-09T13:49:43.150Z,39.00
2018-06-09T13:52:11.317Z,40.10
2018-06-09T13:57:07.989Z,39.30
2018-06-09T13:59:36.290Z,39.40
2018-06-09T14:02:04.462Z,40.20
2018-06-09T14:04:32.667Z,40.00
2018-06-09T14:07:00.830Z,39.20
2018-06-09T14:09:29.009Z,39.70
2018-06-09T14:11:57.261Z,40.20
2018-06-09T14:14:25.434Z,40.60
2018-06-09T14:16:53.625Z,39.70
2018-06-09T14:19:21.783Z,39.40
2018-06-09T14:21:49.961Z,38.50
2018-06-09T14:24:18.176Z,37.20
2018-06-09T14:26:46.360Z,37.60
2018-06-09T14:29:14.554Z,35.90
2018-06-09T14:31:42.773Z,36.00
2018-06-09T14:34:10.978Z,36.00
2018-06-09T14:36:39.544Z,35.90
2018-06-09T14:39:08.359Z,36.10
2018-06-09T14:41:36.583Z,35.80
2018-06-09T14:44:04.788Z,36.20
2018-06-09T14:46:33.021Z,36.30
2018-06-09T14:49:01.181Z,36.80
2018-06-09T14:51:29.386Z,36.50
2018-06-09T14:53:57.570Z,36.20
2018-06-09T14:56:25.750Z,35.30
2018-06-09T14:58:53.907Z,35.10
2018-06-09T15:01:22.094Z,36.00
2018-06-09T15:03:50.602Z,35.80
2018-06-09T15:06:18.792Z,36.60
2018-06-09T15:08:47.017Z,37.00
2018-06-09T15:11:15.206Z,37.10
2018-06-09T15:13:43.382Z,36.20
2018-06-09T15:16:11.578Z,36.60
2018-06-09T15:18:39.734Z,36.30
2018-06-09T15:21:07.922Z,35.00
2018-06-09T15:23:36.125Z,34.30
2018-06-09T15:26:04.293Z,33.80
2018-06-09T15:28:32.481Z,34.10
2018-06-09T15:31:00.730Z,34.70
2018-06-09T15:33:28.902Z,34.60
2018-06-09T15:35:57.178Z,35.10
2018-06-09T15:38:25.355Z,35.00
2018-06-09T15:40:53.592Z,33.90
2018-06-09T15:43:21.804Z,34.30
2018-06-09T15:45:49.985Z,33.30
2018-06-09T15:48:18.286Z,33.10
2018-06-09T15:50:46.542Z,33.10
2018-06-09T15:53:14.817Z,33.40
2018-06-09T15:55:43.234Z,33.10
2018-06-09T15:58:11.420Z,33.70
2018-06-09T16:00:39.656Z,33.60
2018-06-09T16:03:08.094Z,33.50
2018-06-09T16:05:36.361Z,34.60
2018-06-09T16:08:04.613Z,33.90
2018-06-09T16:10:32.853Z,34.10
2018-06-09T16:13:01.053Z,33.80
2018-06-09T16:15:29.248Z,33.70
2018-06-09T16:17:57.494Z,33.90
2018-06-09T16:20:25.664Z,33.50
2018-06-09T16:22:53.957Z,33.60
2018-06-09T16:25:22.234Z,34.40
2018-06-09T16:27:50.441Z,36.20
2018-06-09T16:30:18.625Z,37.40
2018-06-09T16:32:46.863Z,38.60
2018-06-09T16:35:15.406Z,39.40
2018-06-09T16:37:43.658Z,40.10
2018-06-09T16:40:11.859Z,40.80
2018-06-09T16:42:40.023Z,42.10
2018-06-09T16:45:08.196Z,43.50
2018-06-09T16:47:36.585Z,44.50
2018-06-09T16:50:04.828Z,43.10
2018-06-09T16:52:33.158Z,42.10
2018-06-09T16:55:01.353Z,41.80
2018-06-09T16:57:29.576Z,42.80
2018-06-09T16:59:57.790Z,44.60
2018-06-09T17:02:26.061Z,45.80
2018-06-09T17:04:54.321Z,46.30
2018-06-09T17:07:22.599Z,47.00
2018-06-09T17:09:50.887Z,48.30
2018-06-09T17:12:19.255Z,48.90
2018-06-09T17:14:47.649Z,49.50
2018-06-09T17:17:15.874Z,50.00
2018-06-09T17:19:44.091Z,50.90
2018-06-09T17:22:12.423Z,50.20
2018-06-09T17:24:43.688Z,50.90
2018-06-09T17:27:11.965Z,50.90
2018-06-09T17:29:40.374Z,49.70
2018-06-09T17:32:08.680Z,50.20
2018-06-09T17:34:43.417Z,50.00
2018-06-09T17:37:11.648Z,49.50
2018-06-09T17:39:39.923Z,49.60
2018-06-09T17:42:08.245Z,49.40
2018-06-09T17:44:36.481Z,48.80
2018-06-09T17:47:04.734Z,48.60
2018-06-09T17:49:32.966Z,48.30
2018-06-09T17:52:01.200Z,48.60
2018-06-09T17:54:29.393Z,48.90
2018-06-09T17:56:57.623Z,48.90
2018-06-09T17:59:25.802Z,49.60
2018-06-09T18:01:53.954Z,49.80
2018-06-09T18:04:22.145Z,49.30
2018-06-09T18:06:50.339Z,49.70
2018-06-09T18:09:18.554Z,50.00
2018-06-09T18:11:46.705Z,50.40
2018-06-09T18:14:14.981Z,50.20
2018-06-09T18:16:43.316Z,50.30
2018-06-09T18:19:11.557Z,50.30
2018-06-09T18:21:39.841Z,50.20
2018-06-09T18:24:08.085Z,50.40
2018-06-09T18:26:39.321Z,50.20
2018-06-09T18:29:07.541Z,50.00
2018-06-09T18:31:35.777Z,50.10
2018-06-09T18:34:04.082Z,50.20
2018-06-09T18:36:32.333Z,51.10
2018-06-09T18:39:00.546Z,50.00
2018-06-09T18:41:28.829Z,49.90
2018-06-09T18:43:57.087Z,50.30
2018-06-09T18:46:25.365Z,51.00
2018-06-09T18:48:53.563Z,51.00
2018-06-09T18:51:21.832Z,51.40
2018-06-09T18:53:50.086Z,51.00
2018-06-09T18:56:18.399Z,50.50
2018-06-09T18:58:46.724Z,51.00
2018-06-09T19:01:14.935Z,50.40
2018-06-09T19:03:43.211Z,50.50
2018-06-09T19:06:11.445Z,50.80
2018-06-09T19:08:39.731Z,51.10
2018-06-09T19:11:07.991Z,51.20
2018-06-09T19:13:36.235Z,51.40
2018-06-09T19:16:04.467Z,51.60
2018-06-09T19:18:32.832Z,51.30
2018-06-09T19:21:01.101Z,51.00
2018-06-09T19:23:29.338Z,51.40
2018-06-09T19:25:57.587Z,51.70
2018-06-09T19:28:25.818Z,52.10
2018-06-09T19:30:54.021Z,53.00
2018-06-09T19:33:22.267Z,52.60
2018-06-09T19:35:50.482Z,52.70
2018-06-09T19:38:18.847Z,52.10
2018-06-09T19:40:47.108Z,52.10
2018-06-09T19:43:15.323Z,52.30
2018-06-09T19:45:43.563Z,53.00
2018-06-09T19:48:11.777Z,53.10
2018-06-09T19:50:40.014Z,53.20
2018-06-09T19:53:08.210Z,53.60
2018-06-09T19:55:36.610Z,53.80
2018-06-09T19:58:05.107Z,53.70
2018-06-09T20:00:33.462Z,54.10
2018-06-09T20:03:01.723Z,53.70
2018-06-09T20:05:29.918Z,54.80
2018-06-09T20:07:58.162Z,54.90
2018-06-09T20:10:26.391Z,55.40
2018-06-09T20:12:54.628Z,56.10
2018-06-09T20:15:22.887Z,56.20
2018-06-09T20:17:51.103Z,55.10
2018-06-09T20:20:19.376Z,54.50
2018-06-09T20:22:47.605Z,54.30
2018-06-09T20:25:15.806Z,53.80
2018-06-09T20:27:43.998Z,53.80
2018-06-09T20:30:12.202Z,53.60
2018-06-09T20:32:40.461Z,54.40
2018-06-09T20:35:08.637Z,54.30
2018-06-09T20:37:37.011Z,54.50
2018-06-09T20:40:05.240Z,54.30
2018-06-09T20:42:33.433Z,54.30
2018-06-09T20:45:01.618Z,53.80
2018-06-09T20:47:29.783Z,54.30
2018-06-09T20:49:58.045Z,54.00
2018-06-09T20:52:26.253Z,54.70
2018-06-09T20:54:54.536Z,55.30
2018-06-09T20:57:22.761Z,56.00
2018-06-09T20:59:50.977Z,56.20
2018-06-09T21:02:19.234Z,56.90
2018-06-09T21:04:47.487Z,56.60
2018-06-09T21:07:15.735Z,57.40
2018-06-09T21:09:43.989Z,57.90
2018-06-09T21:12:12.249Z,57.90
2018-06-09T21:14:40.536Z,58.00
2018-06-09T21:17:08.798Z,57.90
2018-06-09T21:19:37.606Z,58.30
2018-06-09T21:22:05.901Z,59.10
2018-06-09T21:24:34.130Z,59.20
2018-06-09T21:27:07.709Z,58.90
2018-06-09T21:29:41.323Z,58.60
2018-06-09T21:32:10.185Z,58.60
2018-06-09T21:34:55.130Z,58.10
2018-06-09T21:37:29.152Z,58.20
2018-06-09T21:40:02.078Z,58.30
2018-06-09T21:42:34.717Z,58.10
2018-06-09T21:45:08.082Z,58.40
2018-06-09T21:47:36.374Z,58.20
2018-06-09T21:50:05.011Z,57.50
2018-06-09T21:52:33.245Z,57.70
2018-06-09T21:55:01.482Z,57.50
2018-06-09T21:57:29.715Z,57.30
2018-06-09T21:59:57.925Z,57.00
2018-06-09T22:02:26.233Z,57.80
2018-06-09T22:04:54.511Z,58.10
2018-06-09T22:07:22.786Z,58.30
2018-06-09T22:09:51.182Z,59.00
2018-06-09T22:12:19.484Z,58.40
2018-06-09T22:14:47.726Z,59.10
2018-06-09T22:17:15.998Z,59.70
2018-06-09T22:19:44.327Z,59.20
2018-06-09T22:22:12.586Z,59.10
2018-06-09T22:24:40.843Z,58.80
2018-06-09T22:27:09.093Z,59.70
2018-06-09T22:29:37.362Z,58.80
2018-06-09T22:32:05.882Z,59.90
2018-06-09T22:34:34.149Z,61.40
2018-06-09T22:37:02.420Z,63.10
2018-06-09T22:39:30.705Z,64.50
2018-06-09T22:41:58.921Z,65.70
2018-06-09T22:46:55.224Z,67.90
2018-06-09T22:49:23.397Z,68.30
2018-06-09T22:51:51.585Z,68.30
2018-06-09T22:54:19.754Z,68.50
2018-06-09T22:56:47.938Z,68.30
2018-06-09T22:59:16.143Z,67.90
2018-06-09T23:01:44.365Z,67.70
2018-06-09T23:04:12.564Z,67.20
2018-06-09T23:06:40.782Z,67.40
2018-06-09T23:09:09.071Z,67.50
2018-06-09T23:11:37.249Z,67.70
2018-06-09T23:14:05.444Z,68.10
2018-06-09T23:16:33.636Z,68.40
2018-06-09T23:19:01.906Z,68.50
2018-06-09T23:21:30.069Z,68.20
2018-06-09T23:23:58.309Z,68.80
2018-06-09T23:26:26.529Z,72.30
2018-06-09T23:28:54.805Z,71.60
2018-06-09T23:31:23.054Z,71.40
2018-06-09T23:33:51.271Z,71.10
2018-06-09T23:36:19.626Z,71.30
2018-06-09T23:38:54.157Z,71.70
2018-06-09T23:41:22.351Z,71.50
2018-06-09T23:43:50.856Z,72.20
2018-06-09T23:46:19.083Z,72.10
2018-06-09T23:48:47.394Z,72.50
2018-06-09T23:51:15.601Z,74.10
2018-06-09T23:53:43.813Z,75.00
2018-06-09T23:56:12.040Z,75.00
2018-06-09T23:58:40.261Z,74.80
